Time;durP1;ratioP1;P1;durP2;ratioP2;P2;SDS_P1;SDS_P2;PMS_P1;PMS_P2;Temp;Humidity;BMP_temperature;BMP_pressure;BME280_temperature;BME280_humidity;BME280_pressure;Samples;Min_cycle;Max_cycle;Signal;HPM_P1;HPM_P2
2023/09/22 00:01:25;;;;;;;11.90;10.98;;;;;;;;;;4969349;28;20105;-74
2023/09/22 00:03:51;;;;;;;11.02;10.40;;;;;;;;;;4965706;28;20035;-73
2023/09/22 00:06:18;;;;;;;11.82;10.98;;;;;;;;;;4998893;28;20038;-74
2023/09/22 00:08:43;;;;;;;10.93;10.32;;;;;;;;;;4967801;28;20733;-74
2023/09/22 00:11:10;;;;;;;11.00;10.40;;;;;;;;;;4968423;28;20047;-74
2023/09/22 00:13:36;;;;;;;11.52;10.57;;;;;;;;;;4982174;28;20149;-74
2023/09/22 00:16:02;;;;;;;11.63;10.82;;;;;;;;;;4962244;28;20584;-73
2023/09/22 00:18:28;;;;;;;11.98;11.18;;;;;;;;;;4964383;28;20035;-73
2023/09/22 00:20:54;;;;;;;11.93;11.23;;;;;;;;;;4965124;28;20034;-74
2023/09/22 00:23:20;;;;;;;11.52;10.63;;;;;;;;;;4962535;28;20066;-73
2023/09/22 00:25:46;;;;;;;11.63;11.02;;;;;;;;;;4961628;28;20110;-73
2023/09/22 00:28:11;;;;;;;11.80;11.10;;;;;;;;;;4977496;28;20036;-74
2023/09/22 00:30:37;;;;;;;11.52;10.82;;;;;;;;;;4933302;28;20525;-73
2023/09/22 00:33:03;;;;;;;12.70;11.80;;;;;;;;;;4980283;28;20034;-73
2023/09/22 00:35:28;;;;;;;11.65;10.95;;;;;;;;;;4982619;28;20046;-73
2023/09/22 00:37:54;;;;;;;12.05;11.25;;;;;;;;;;4996762;28;20035;-73
2023/09/22 00:40:20;;;;;;;11.52;10.93;;;;;;;;;;4965027;28;20439;-73
2023/09/22 00:42:45;;;;;;;11.57;10.88;;;;;;;;;;4964992;28;20113;-74
2023/09/22 00:45:11;;;;;;;12.02;11.32;;;;;;;;;;4997734;28;20053;-73
2023/09/22 00:47:37;;;;;;;11.52;10.82;;;;;;;;;;4967550;28;20278;-74
2023/09/22 00:50:05;;;;;;;12.13;11.35;;;;;;;;;;4997430;28;20097;-74
2023/09/22 00:52:31;;;;;;;12.60;11.82;;;;;;;;;;4965926;28;20069;-74
2023/09/22 00:54:57;;;;;;;12.52;11.73;;;;;;;;;;4965981;28;20066;-73
2023/09/22 00:57:23;;;;;;;12.20;11.50;;;;;;;;;;4967163;28;20035;-72
2023/09/22 00:59:50;;;;;;;12.65;11.85;;;;;;;;;;4967623;28;20050;-73
2023/09/22 01:02:15;;;;;;;12.82;12.02;;;;;;;;;;4964986;28;20975;-73
2023/09/22 01:04:42;;;;;;;12.45;11.75;;;;;;;;;;4965548;28;20038;-74
2023/09/22 01:07:09;;;;;;;12.80;11.93;;;;;;;;;;4966259;28;20038;-73
2023/09/22 01:09:37;;;;;;;13.20;12.33;;;;;;;;;;4965113;28;20039;-73
2023/09/22 01:12:03;;;;;;;12.85;12.00;;;;;;;;;;4967567;28;20085;-73
2023/09/22 01:14:29;;;;;;;12.40;11.60;;;;;;;;;;4983856;28;20129;-73
2023/09/22 01:16:55;;;;;;;12.30;11.60;;;;;;;;;;4982699;28;20106;-74
2023/09/22 01:19:20;;;;;;;12.70;11.43;;;;;;;;;;4965860;28;20035;-73
2023/09/22 01:21:48;;;;;;;12.10;11.40;;;;;;;;;;4979360;28;20089;-74
2023/09/22 01:24:13;;;;;;;13.45;12.55;;;;;;;;;;4967658;28;20460;-74
2023/09/22 01:26:39;;;;;;;12.45;11.73;;;;;;;;;;4982171;28;20066;-73
2023/09/22 01:29:06;;;;;;;12.48;11.68;;;;;;;;;;4967550;28;20073;-73
2023/09/22 01:31:33;;;;;;;12.32;11.63;;;;;;;;;;4982606;28;20046;-73
2023/09/22 01:34:01;;;;;;;12.90;12.10;;;;;;;;;;4969913;28;20046;-74
2023/09/22 01:36:28;;;;;;;12.07;11.38;;;;;;;;;;4971146;28;20058;-73
2023/09/22 01:38:54;;;;;;;13.02;12.27;;;;;;;;;;5006870;28;20042;-73
2023/09/22 01:41:19;;;;;;;12.57;11.80;;;;;;;;;;4985846;28;20726;-73
2023/09/22 01:43:45;;;;;;;12.65;11.70;;;;;;;;;;4968824;28;20035;-73
2023/09/22 01:46:11;;;;;;;12.38;11.68;;;;;;;;;;4996702;28;20045;-73
2023/09/22 01:48:36;;;;;;;13.35;12.38;;;;;;;;;;4977880;28;20039;-73
2023/09/22 01:51:03;;;;;;;12.65;11.75;;;;;;;;;;4963428;28;20434;-73
2023/09/22 01:53:29;;;;;;;12.95;11.82;;;;;;;;;;4979486;28;20575;-73
2023/09/22 01:55:55;;;;;;;12.80;12.00;;;;;;;;;;4964189;28;20046;-73
2023/09/22 01:58:21;;;;;;;12.93;11.98;;;;;;;;;;4976397;28;20026;-73
2023/09/22 02:00:48;;;;;;;13.18;12.27;;;;;;;;;;4963573;28;20038;-73
2023/09/22 02:03:14;;;;;;;12.38;11.68;;;;;;;;;;4978374;28;20432;-75
2023/09/22 02:05:39;;;;;;;12.13;11.43;;;;;;;;;;4962522;28;20412;-73
2023/09/22 02:08:08;;;;;;;12.27;11.57;;;;;;;;;;4993639;28;20059;-73
2023/09/22 02:10:34;;;;;;;12.68;11.90;;;;;;;;;;4964161;28;20030;-74
2023/09/22 02:13:00;;;;;;;12.45;11.75;;;;;;;;;;4964423;28;20041;-72
2023/09/22 02:15:26;;;;;;;11.82;11.13;;;;;;;;;;4960422;28;20054;-74
2023/09/22 02:18:00;;;;;;;12.60;11.70;;;;;;;;;;4996693;28;20094;-73
2023/09/22 02:20:29;;;;;;;12.88;11.95;;;;;;;;;;4963160;28;20509;-73
2023/09/22 02:22:59;;;;;;;12.15;11.35;;;;;;;;;;4962231;28;20097;-73
2023/09/22 02:25:25;;;;;;;12.45;11.75;;;;;;;;;;4936764;28;20527;-73
2023/09/22 02:27:55;;;;;;;12.55;11.73;;;;;;;;;;4992601;28;20056;-73
2023/09/22 02:30:21;;;;;;;12.10;11.40;;;;;;;;;;4956234;28;20046;-72
2023/09/22 02:32:48;;;;;;;12.73;11.93;;;;;;;;;;4975506;28;20126;-73
2023/09/22 02:35:15;;;;;;;13.05;12.25;;;;;;;;;;4964455;28;20579;-72
2023/09/22 02:37:41;;;;;;;12.95;12.15;;;;;;;;;;4996434;28;20129;-73
2023/09/22 02:40:34;;;;;;;12.40;11.63;;;;;;;;;;4964697;28;20046;-72
2023/09/22 02:43:00;;;;;;;13.13;12.25;;;;;;;;;;4960721;28;20138;-73
2023/09/22 02:45:26;;;;;;;12.35;11.65;;;;;;;;;;4962934;28;20133;-72
2023/09/22 02:47:53;;;;;;;13.02;12.00;;;;;;;;;;4959859;28;20118;-73
2023/09/22 02:50:19;;;;;;;12.43;11.63;;;;;;;;;;4959216;28;20579;-73
2023/09/22 02:52:44;;;;;;;12.10;11.40;;;;;;;;;;4973717;28;20125;-74
2023/09/22 02:55:11;;;;;;;11.40;10.70;;;;;;;;;;4942834;28;20065;-73
2023/09/22 02:57:37;;;;;;;12.20;11.50;;;;;;;;;;4964074;28;20041;-72
2023/09/22 03:00:20;;;;;;;12.65;11.85;;;;;;;;;;4959453;28;20043;-73
2023/09/22 03:02:47;;;;;;;12.60;11.60;;;;;;;;;;4991966;28;20117;-73
2023/09/22 03:05:16;;;;;;;12.35;11.65;;;;;;;;;;4973862;28;20668;-72
2023/09/22 03:07:44;;;;;;;12.48;11.73;;;;;;;;;;4960194;28;20031;-73
2023/09/22 03:10:11;;;;;;;12.88;11.98;;;;;;;;;;4961689;28;20038;-74
2023/09/22 03:12:38;;;;;;;13.27;12.40;;;;;;;;;;4972473;28;20050;-73
2023/09/22 03:15:09;;;;;;;13.27;12.48;;;;;;;;;;4993784;28;20045;-72
2023/09/22 03:17:36;;;;;;;12.73;11.93;;;;;;;;;;4973280;28;20086;-73
2023/09/22 03:20:06;;;;;;;12.77;11.98;;;;;;;;;;4988076;28;20031;-73
2023/09/22 03:22:35;;;;;;;12.40;11.70;;;;;;;;;;4956376;28;20039;-73
2023/09/22 03:25:00;;;;;;;12.90;12.10;;;;;;;;;;4976305;28;20093;-72
2023/09/22 03:27:28;;;;;;;12.43;11.70;;;;;;;;;;4923406;28;20125;-73
2023/09/22 03:29:54;;;;;;;12.68;11.70;;;;;;;;;;4971691;28;20035;-73
2023/09/22 03:32:21;;;;;;;12.65;11.95;;;;;;;;;;4953098;28;20638;-72
2023/09/22 03:34:48;;;;;;;12.32;11.63;;;;;;;;;;4955946;28;20121;-73
2023/09/22 03:37:14;;;;;;;12.57;11.77;;;;;;;;;;4974666;28;20571;-72
2023/09/22 03:39:40;;;;;;;12.77;11.98;;;;;;;;;;4963051;28;20027;-72
2023/09/22 03:42:07;;;;;;;12.73;11.70;;;;;;;;;;4976949;28;20584;-73
2023/09/22 03:44:34;;;;;;;12.65;11.82;;;;;;;;;;4956309;28;20042;-73
2023/09/22 03:46:59;;;;;;;13.35;12.45;;;;;;;;;;4955752;28;20046;-73
2023/09/22 03:49:26;;;;;;;13.13;12.32;;;;;;;;;;4960565;28;20041;-73
2023/09/22 03:51:51;;;;;;;13.73;12.82;;;;;;;;;;4963411;28;20035;-73
2023/09/22 03:54:17;;;;;;;12.70;11.77;;;;;;;;;;4957556;28;20037;-72
2023/09/22 03:56:42;;;;;;;12.30;11.52;;;;;;;;;;4960812;28;20038;-71
2023/09/22 03:59:09;;;;;;;12.38;11.57;;;;;;;;;;4956638;28;20468;-74
2023/09/22 04:01:35;;;;;;;12.80;11.90;;;;;;;;;;4960156;28;20144;-73
2023/09/22 04:04:03;;;;;;;12.05;11.35;;;;;;;;;;4957000;28;20049;-72
2023/09/22 04:06:30;;;;;;;13.23;11.95;;;;;;;;;;4994668;28;20027;-72
2023/09/22 04:08:56;;;;;;;12.35;11.43;;;;;;;;;;4957338;28;20041;-73
2023/09/22 04:11:22;;;;;;;12.85;12.05;;;;;;;;;;4983843;28;20054;-72
2023/09/22 04:13:48;;;;;;;11.80;11.10;;;;;;;;;;4945326;28;20060;-73
2023/09/22 04:16:14;;;;;;;12.55;11.80;;;;;;;;;;4960678;28;20051;-72
2023/09/22 04:18:40;;;;;;;12.18;11.48;;;;;;;;;;4963157;28;20057;-73
2023/09/22 04:21:07;;;;;;;11.85;10.98;;;;;;;;;;4962983;28;20495;-73
2023/09/22 04:23:34;;;;;;;11.85;11.15;;;;;;;;;;4959330;28;20043;-73
2023/09/22 04:26:09;;;;;;;12.10;11.40;;;;;;;;;;4958303;28;20034;-73
2023/09/22 04:28:35;;;;;;;11.57;10.68;;;;;;;;;;4962769;28;20034;-73
2023/09/22 04:31:01;;;;;;;12.75;11.75;;;;;;;;;;4967841;28;20034;-71
2023/09/22 04:33:27;;;;;;;12.50;11.40;;;;;;;;;;4961247;28;20105;-71
2023/09/22 04:35:52;;;;;;;12.00;11.20;;;;;;;;;;4965282;28;20030;-73
2023/09/22 04:38:18;;;;;;;13.38;12.40;;;;;;;;;;4967753;28;20049;-70
2023/09/22 04:40:47;;;;;;;12.68;11.75;;;;;;;;;;4963047;28;20493;-71
2023/09/22 04:43:13;;;;;;;13.15;12.20;;;;;;;;;;4964966;28;20034;-72
2023/09/22 04:45:43;;;;;;;13.90;12.68;;;;;;;;;;4964632;28;20862;-71
2023/09/22 04:48:10;;;;;;;12.45;11.45;;;;;;;;;;4994869;28;20042;-71
2023/09/22 04:50:37;;;;;;;12.38;11.57;;;;;;;;;;4968506;28;20047;-73
2023/09/22 04:53:04;;;;;;;12.52;11.63;;;;;;;;;;4968467;28;20042;-72
2023/09/22 04:55:35;;;;;;;12.90;11.88;;;;;;;;;;4963938;28;20041;-72
2023/09/22 04:58:02;;;;;;;11.98;11.27;;;;;;;;;;4964265;28;20043;-73
2023/09/22 05:00:28;;;;;;;12.30;11.60;;;;;;;;;;4963363;28;20037;-72
2023/09/22 05:02:54;;;;;;;12.52;11.52;;;;;;;;;;4966963;28;20042;-71
2023/09/22 05:05:19;;;;;;;12.27;11.27;;;;;;;;;;4964191;28;20134;-74
2023/09/22 05:07:46;;;;;;;12.23;11.32;;;;;;;;;;4962965;28;20573;-72
2023/09/22 05:10:11;;;;;;;12.73;11.82;;;;;;;;;;4980945;28;20122;-74
2023/09/22 05:12:37;;;;;;;11.98;11.18;;;;;;;;;;4967455;28;20114;-72
2023/09/22 05:15:04;;;;;;;11.90;11.10;;;;;;;;;;4964160;28;20039;-72
2023/09/22 05:17:30;;;;;;;12.23;11.52;;;;;;;;;;4968408;28;20077;-73
2023/09/22 05:19:55;;;;;;;11.85;11.15;;;;;;;;;;4970814;28;20034;-70
2023/09/22 05:22:22;;;;;;;11.93;11.23;;;;;;;;;;4969078;28;20030;-73
2023/09/22 05:24:48;;;;;;;11.85;11.15;;;;;;;;;;4966540;28;20030;-72
2023/09/22 05:27:15;;;;;;;11.90;11.10;;;;;;;;;;4968911;28;20061;-73
2023/09/22 05:29:41;;;;;;;11.80;11.02;;;;;;;;;;4966561;28;20047;-72
2023/09/22 05:32:08;;;;;;;12.07;11.18;;;;;;;;;;4963468;28;20038;-72
2023/09/22 05:34:34;;;;;;;12.20;11.20;;;;;;;;;;4973584;28;20495;-74
2023/09/22 05:37:00;;;;;;;13.30;12.00;;;;;;;;;;4997139;28;20090;-73
2023/09/22 05:39:26;;;;;;;11.93;11.18;;;;;;;;;;4971428;28;20117;-73
2023/09/22 05:41:55;;;;;;;12.20;11.48;;;;;;;;;;4993276;28;20042;-74
2023/09/22 05:44:21;;;;;;;12.05;11.25;;;;;;;;;;4967518;28;20043;-71
2023/09/22 05:46:51;;;;;;;12.75;11.85;;;;;;;;;;4978945;28;20042;-72
2023/09/22 05:49:17;;;;;;;12.90;12.10;;;;;;;;;;4965888;28;20072;-72
2023/09/22 05:51:43;;;;;;;12.50;11.70;;;;;;;;;;4965589;28;20107;-73
2023/09/22 05:54:15;;;;;;;13.35;12.25;;;;;;;;;;4997948;28;20042;-72
2023/09/22 05:56:41;;;;;;;12.25;11.55;;;;;;;;;;4950919;28;20043;-72
2023/09/22 05:59:06;;;;;;;12.60;11.57;;;;;;;;;;4971032;28;20125;-72
2023/09/22 06:01:36;;;;;;;12.32;11.52;;;;;;;;;;4970748;28;20054;-74
2023/09/22 06:04:04;;;;;;;12.82;11.88;;;;;;;;;;4967480;28;20057;-71
2023/09/22 06:06:30;;;;;;;12.43;11.63;;;;;;;;;;4973039;28;20475;-71
2023/09/22 06:08:56;;;;;;;12.57;11.68;;;;;;;;;;4970701;28;20042;-73
2023/09/22 06:11:21;;;;;;;12.90;11.93;;;;;;;;;;4969597;28;20043;-73
2023/09/22 06:14:39;;;;;;;12.77;11.88;;;;;;;;;;4970484;28;20046;-73
2023/09/22 06:17:14;;;;;;;12.70;11.90;;;;;;;;;;4942107;28;20414;-70
2023/09/22 06:19:41;;;;;;;12.57;11.68;;;;;;;;;;4926693;29;20050;-72
2023/09/22 06:22:15;;;;;;;12.60;11.80;;;;;;;;;;4941901;28;20059;-71
2023/09/22 06:24:41;;;;;;;13.02;11.93;;;;;;;;;;4931357;29;20043;-74
2023/09/22 06:27:07;;;;;;;12.48;11.55;;;;;;;;;;4927909;28;20047;-72
2023/09/22 06:29:32;;;;;;;12.63;11.73;;;;;;;;;;4912963;29;20382;-71
2023/09/22 06:32:05;;;;;;;12.25;11.45;;;;;;;;;;4928741;29;20063;-72
2023/09/22 06:34:31;;;;;;;13.70;12.70;;;;;;;;;;4926747;29;20178;-71
2023/09/22 06:36:57;;;;;;;13.48;12.32;;;;;;;;;;4943763;28;20122;-73
2023/09/22 06:39:25;;;;;;;14.30;13.13;;;;;;;;;;4933697;29;20098;-72
2023/09/22 06:41:51;;;;;;;12.88;11.90;;;;;;;;;;4933421;29;20111;-73
2023/09/22 06:44:18;;;;;;;13.80;12.65;;;;;;;;;;4909911;29;20078;-72
2023/09/22 06:46:44;;;;;;;13.50;12.60;;;;;;;;;;4931454;29;20079;-71
2023/09/22 06:49:10;;;;;;;14.10;13.00;;;;;;;;;;4911153;29;20580;-73
2023/09/22 06:51:37;;;;;;;13.32;12.43;;;;;;;;;;4930630;28;20050;-73
2023/09/22 06:54:03;;;;;;;13.40;12.40;;;;;;;;;;4965752;28;20166;-71
2023/09/22 06:56:29;;;;;;;13.05;12.15;;;;;;;;;;4969873;28;20035;-73
2023/09/22 06:58:55;;;;;;;12.48;11.68;;;;;;;;;;4968683;28;20035;-72
2023/09/22 07:01:21;;;;;;;13.45;12.52;;;;;;;;;;4966142;28;20046;-72
2023/09/22 07:03:48;;;;;;;13.35;12.45;;;;;;;;;;4968376;28;20528;-71
2023/09/22 07:06:17;;;;;;;13.27;12.48;;;;;;;;;;4966012;28;20177;-73
2023/09/22 07:08:45;;;;;;;14.48;13.05;;;;;;;;;;4967369;28;20500;-73
2023/09/22 07:11:11;;;;;;;12.68;11.93;;;;;;;;;;4967946;28;20094;-71
2023/09/22 07:13:38;;;;;;;13.75;12.73;;;;;;;;;;4972443;28;20163;-72
2023/09/22 07:16:04;;;;;;;12.82;11.93;;;;;;;;;;4965967;28;20035;-73
2023/09/22 07:18:29;;;;;;;12.93;12.02;;;;;;;;;;4967971;28;20029;-72
2023/09/22 07:20:56;;;;;;;13.00;12.00;;;;;;;;;;4963849;28;20039;-70
2023/09/22 07:23:22;;;;;;;12.68;11.82;;;;;;;;;;4965743;28;20069;-70
2023/09/22 07:25:59;;;;;;;12.90;12.00;;;;;;;;;;4966432;28;20027;-72
2023/09/22 07:28:25;;;;;;;12.70;11.90;;;;;;;;;;4964266;28;20045;-73
2023/09/22 07:30:51;;;;;;;13.27;12.30;;;;;;;;;;4967401;28;20154;-73
2023/09/22 07:33:17;;;;;;;13.45;12.35;;;;;;;;;;4965902;28;20475;-73
2023/09/22 07:35:45;;;;;;;13.23;12.32;;;;;;;;;;4974333;28;20039;-71
2023/09/22 07:38:11;;;;;;;13.30;12.40;;;;;;;;;;4966546;28;20074;-73
2023/09/22 07:40:36;;;;;;;13.35;12.30;;;;;;;;;;4969490;28;20597;-71
2023/09/22 07:43:02;;;;;;;12.98;12.15;;;;;;;;;;4971604;28;20030;-72
2023/09/22 07:45:28;;;;;;;13.43;12.55;;;;;;;;;;4969552;28;20042;-70
2023/09/22 07:47:54;;;;;;;12.65;11.95;;;;;;;;;;4964027;28;20038;-72
2023/09/22 07:50:20;;;;;;;13.75;12.68;;;;;;;;;;4958793;28;20069;-70
2023/09/22 07:52:46;;;;;;;13.07;12.18;;;;;;;;;;4972287;28;20085;-74
2023/09/22 07:55:14;;;;;;;13.10;12.10;;;;;;;;;;4969258;28;20045;-74
2023/09/22 07:57:40;;;;;;;13.45;12.35;;;;;;;;;;4963013;28;20036;-74
2023/09/22 08:00:10;;;;;;;12.65;11.80;;;;;;;;;;4979574;28;20035;-74
2023/09/22 08:02:38;;;;;;;12.70;11.90;;;;;;;;;;4985713;28;20493;-72
2023/09/22 08:05:04;;;;;;;12.75;11.85;;;;;;;;;;4971298;28;20046;-71
2023/09/22 08:07:30;;;;;;;13.38;12.30;;;;;;;;;;4964325;28;20549;-74
2023/09/22 08:09:55;;;;;;;13.30;12.40;;;;;;;;;;4964530;28;20074;-73
2023/09/22 08:12:21;;;;;;;13.30;12.40;;;;;;;;;;4968297;28;20096;-74
2023/09/22 08:14:47;;;;;;;13.70;12.57;;;;;;;;;;4970337;28;20037;-74
2023/09/22 08:17:12;;;;;;;12.93;12.00;;;;;;;;;;4966888;28;20049;-71
2023/09/22 08:19:38;;;;;;;12.88;11.77;;;;;;;;;;4967481;28;20034;-74
2023/09/22 08:22:04;;;;;;;13.60;12.60;;;;;;;;;;4966415;28;20118;-73
2023/09/22 08:24:29;;;;;;;13.65;12.65;;;;;;;;;;4967508;28;20049;-73
2023/09/22 08:26:57;;;;;;;12.15;11.30;;;;;;;;;;4969698;28;20035;-72
2023/09/22 08:29:23;;;;;;;18.20;12.20;;;;;;;;;;4960700;28;20102;-74
2023/09/22 08:31:49;;;;;;;12.55;11.75;;;;;;;;;;4965986;28;20485;-71
2023/09/22 08:34:14;;;;;;;11.70;10.95;;;;;;;;;;4965785;28;20050;-71
2023/09/22 08:36:40;;;;;;;13.00;11.85;;;;;;;;;;4963180;28;20389;-72
2023/09/22 08:39:08;;;;;;;12.18;11.25;;;;;;;;;;4965843;28;20398;-74
2023/09/22 08:41:37;;;;;;;12.88;12.07;;;;;;;;;;4967984;28;20038;-73
2023/09/22 08:44:05;;;;;;;12.40;11.63;;;;;;;;;;4960037;28;20334;-72
2023/09/22 08:46:33;;;;;;;12.18;11.40;;;;;;;;;;4991879;28;20035;-72
2023/09/22 08:48:59;;;;;;;12.90;12.00;;;;;;;;;;4964792;28;20516;-74
2023/09/22 08:51:25;;;;;;;12.65;11.85;;;;;;;;;;4963410;28;20034;-74
2023/09/22 08:53:53;;;;;;;12.35;11.55;;;;;;;;;;4969599;28;20038;-73
2023/09/22 08:56:21;;;;;;;12.30;11.35;;;;;;;;;;4967008;28;20065;-73
2023/09/22 08:58:47;;;;;;;11.95;11.25;;;;;;;;;;4970258;28;20031;-73
2023/09/22 09:01:13;;;;;;;12.15;11.45;;;;;;;;;;4969426;28;20125;-74
2023/09/22 09:03:39;;;;;;;12.75;11.68;;;;;;;;;;4996983;28;20046;-74
2023/09/22 09:06:09;;;;;;;12.30;11.20;;;;;;;;;;4967527;28;20046;-74
2023/09/22 09:08:35;;;;;;;12.52;11.65;;;;;;;;;;4970668;28;20107;-74
2023/09/22 09:11:10;;;;;;;12.25;11.35;;;;;;;;;;4967046;28;21029;-74
2023/09/22 09:13:37;;;;;;;12.35;11.55;;;;;;;;;;4968753;28;20436;-72
2023/09/22 09:16:07;;;;;;;12.43;11.60;;;;;;;;;;4970370;28;20038;-73
2023/09/22 09:18:34;;;;;;;12.40;11.60;;;;;;;;;;4966560;28;20065;-72
2023/09/22 09:21:14;;;;;;;11.90;11.20;;;;;;;;;;4966784;28;20038;-73
2023/09/22 09:23:54;;;;;;;12.45;11.30;;;;;;;;;;4967115;28;20042;-71
2023/09/22 09:26:26;;;;;;;12.52;11.65;;;;;;;;;;4965718;28;20042;-70
2023/09/22 09:28:53;;;;;;;12.50;11.70;;;;;;;;;;4967286;28;20030;-72
2023/09/22 09:31:19;;;;;;;12.15;11.23;;;;;;;;;;4965627;28;20039;-73
2023/09/22 09:33:53;;;;;;;11.80;11.10;;;;;;;;;;4968355;28;20448;-74
2023/09/22 09:36:19;;;;;;;11.48;10.77;;;;;;;;;;4966204;28;20046;-74
2023/09/22 09:38:44;;;;;;;12.10;11.30;;;;;;;;;;4963070;28;20034;-74
2023/09/22 09:41:11;;;;;;;12.07;11.27;;;;;;;;;;4963340;28;20046;-71
2023/09/22 09:43:44;;;;;;;12.35;11.48;;;;;;;;;;4970401;28;20047;-72
2023/09/22 09:46:12;;;;;;;11.75;10.93;;;;;;;;;;4966565;28;20066;-73
2023/09/22 09:48:39;;;;;;;11.65;10.85;;;;;;;;;;4968168;28;20039;-73
2023/09/22 09:51:11;;;;;;;11.82;11.10;;;;;;;;;;4970823;28;20117;-74
2023/09/22 09:53:44;;;;;;;12.48;11.52;;;;;;;;;;4966689;28;20495;-74
2023/09/22 09:56:13;;;;;;;12.05;11.35;;;;;;;;;;4965346;28;20469;-72
2023/09/22 09:58:39;;;;;;;11.93;10.90;;;;;;;;;;4966141;28;20642;-75
2023/09/22 10:01:06;;;;;;;12.45;11.65;;;;;;;;;;4967979;28;20130;-73
2023/09/22 10:03:39;;;;;;;11.70;11.00;;;;;;;;;;4964824;28;20121;-73
2023/09/22 10:06:08;;;;;;;11.63;10.93;;;;;;;;;;4967625;28;20623;-74
2023/09/22 10:08:34;;;;;;;11.52;10.63;;;;;;;;;;4965477;28;20043;-73
2023/09/22 10:11:04;;;;;;;11.00;10.30;;;;;;;;;;4968066;28;20467;-74
2023/09/22 10:13:30;;;;;;;11.95;11.13;;;;;;;;;;4965257;28;20038;-74
2023/09/22 10:16:06;;;;;;;11.73;11.02;;;;;;;;;;4964042;28;20846;-74
2023/09/22 10:18:52;;;;;;;11.35;10.55;;;;;;;;;;4963883;28;20046;-74
2023/09/22 10:21:30;;;;;;;11.90;10.95;;;;;;;;;;4961872;28;20073;-73
2023/09/22 10:24:23;;;;;;;11.13;10.45;;;;;;;;;;4963086;28;20031;-74
2023/09/22 10:26:55;;;;;;;11.32;10.57;;;;;;;;;;4962729;28;20133;-73
2023/09/22 10:29:32;;;;;;;10.93;10.27;;;;;;;;;;4963318;28;20042;-74
2023/09/22 10:32:17;;;;;;;10.32;9.70;;;;;;;;;;4977432;28;20038;-74
2023/09/22 10:34:53;;;;;;;9.88;9.27;;;;;;;;;;4962258;28;20035;-71
2023/09/22 10:37:23;;;;;;;10.52;9.82;;;;;;;;;;4963814;28;20149;-74
2023/09/22 10:39:51;;;;;;;10.15;9.55;;;;;;;;;;4963323;28;20038;-73
2023/09/22 10:42:17;;;;;;;10.15;9.40;;;;;;;;;;4965565;28;20701;-75
2023/09/22 10:45:05;;;;;;;9.70;9.07;;;;;;;;;;4961936;28;20043;-72
2023/09/22 10:47:55;;;;;;;9.98;9.38;;;;;;;;;;4961835;28;20093;-76
2023/09/22 10:50:31;;;;;;;;;;;;;;;;;;4961822;28;21291;-72
2023/09/22 10:52:58;;;;;;;10.60;9.80;;;;;;;;;;4964503;28;19920;-73
2023/09/22 10:55:41;;;;;;;9.65;9.05;;;;;;;;;;4964245;28;20042;-74
2023/09/22 10:58:21;;;;;;;10.13;9.50;;;;;;;;;;4964609;28;20465;-74
2023/09/22 11:01:00;;;;;;;10.15;9.55;;;;;;;;;;4964676;28;20037;-74
2023/09/22 11:03:27;;;;;;;10.02;9.43;;;;;;;;;;4966045;28;20046;-74
2023/09/22 11:06:00;;;;;;;10.20;9.60;;;;;;;;;;4967263;28;20069;-75
2023/09/22 11:08:26;;;;;;;10.05;9.45;;;;;;;;;;4973291;28;20046;-72
2023/09/22 11:10:54;;;;;;;10.35;9.65;;;;;;;;;;4967720;28;20049;-74
2023/09/22 11:13:23;;;;;;;10.20;9.50;;;;;;;;;;4966628;28;20436;-73
2023/09/22 11:15:50;;;;;;;9.05;8.40;;;;;;;;;;4961443;28;20038;-73
2023/09/22 11:18:25;;;;;;;9.45;8.57;;;;;;;;;;4966783;28;20044;-72
2023/09/22 11:21:10;;;;;;;9.70;9.13;;;;;;;;;;4964558;28;20039;-75
2023/09/22 11:23:38;;;;;;;9.25;8.75;;;;;;;;;;4963673;28;20925;-73
2023/09/22 11:26:24;;;;;;;9.98;9.30;;;;;;;;;;4962051;28;20034;-72
2023/09/22 11:28:52;;;;;;;9.98;9.38;;;;;;;;;;4961968;28;20046;-73
2023/09/22 11:31:22;;;;;;;9.90;9.20;;;;;;;;;;4960762;28;20125;-73
2023/09/22 11:34:03;;;;;;;9.80;9.20;;;;;;;;;;4966478;28;20022;-73
2023/09/22 11:36:47;;;;;;;10.57;9.88;;;;;;;;;;4971222;28;20035;-74
2023/09/22 11:39:24;;;;;;;10.10;9.40;;;;;;;;;;4980384;28;20038;-72
2023/09/22 11:41:54;;;;;;;9.90;9.30;;;;;;;;;;4959258;28;20038;-72
2023/09/22 11:44:20;;;;;;;10.93;9.80;;;;;;;;;;4961627;28;20042;-73
2023/09/22 11:46:47;;;;;;;10.30;9.70;;;;;;;;;;4991541;28;20039;-73
2023/09/22 11:49:13;;;;;;;9.93;9.23;;;;;;;;;;4962913;28;20034;-71
2023/09/22 11:51:45;;;;;;;10.02;9.30;;;;;;;;;;4964463;28;20035;-74
2023/09/22 11:54:13;;;;;;;11.10;10.20;;;;;;;;;;4962696;28;20108;-74
2023/09/22 11:56:40;;;;;;;10.57;9.98;;;;;;;;;;4965749;28;20031;-73
2023/09/22 11:59:10;;;;;;;10.65;9.95;;;;;;;;;;4977963;28;20034;-74
2023/09/22 12:01:36;;;;;;;10.02;9.40;;;;;;;;;;4966608;28;20396;-73
2023/09/22 12:04:04;;;;;;;9.90;9.30;;;;;;;;;;4964415;28;20038;-73
2023/09/22 12:06:31;;;;;;;10.03;9.33;;;;;;;;;;4964818;28;20042;-73
2023/09/22 12:08:58;;;;;;;9.85;9.25;;;;;;;;;;4963200;28;20337;-74
2023/09/22 12:11:25;;;;;;;10.25;9.55;;;;;;;;;;4961284;28;20133;-73
2023/09/22 12:13:50;;;;;;;10.93;10.15;;;;;;;;;;4963000;28;20030;-73
2023/09/22 12:16:16;;;;;;;9.95;9.25;;;;;;;;;;4965528;28;20053;-73
2023/09/22 12:18:41;;;;;;;9.82;9.02;;;;;;;;;;4963099;28;20412;-73
2023/09/22 12:21:07;;;;;;;9.52;8.93;;;;;;;;;;4960238;28;20038;-73
2023/09/22 12:23:35;;;;;;;9.82;9.13;;;;;;;;;;4962981;28;20045;-73
2023/09/22 12:26:02;;;;;;;9.80;9.20;;;;;;;;;;4966263;28;20132;-73
2023/09/22 12:28:28;;;;;;;10.32;9.52;;;;;;;;;;4968083;28;20520;-73
2023/09/22 12:30:54;;;;;;;10.30;9.60;;;;;;;;;;4968599;28;20030;-73
2023/09/22 12:33:20;;;;;;;9.93;9.32;;;;;;;;;;4967929;28;20031;-73
2023/09/22 12:35:50;;;;;;;10.27;9.38;;;;;;;;;;4970579;28;20065;-73
2023/09/22 12:38:16;;;;;;;10.70;10.00;;;;;;;;;;4969155;28;20034;-73
2023/09/22 12:40:42;;;;;;;10.07;9.48;;;;;;;;;;4970341;28;20035;-74
2023/09/22 12:43:10;;;;;;;10.43;9.77;;;;;;;;;;4970924;28;20058;-74
2023/09/22 12:45:35;;;;;;;10.38;9.68;;;;;;;;;;4970025;28;20038;-74
2023/09/22 12:48:01;;;;;;;10.88;10.00;;;;;;;;;;4972652;28;20174;-73
2023/09/22 12:50:27;;;;;;;11.00;9.95;;;;;;;;;;4970883;28;20063;-74
2023/09/22 12:52:56;;;;;;;10.20;9.60;;;;;;;;;;4970665;28;20027;-74
2023/09/22 12:55:21;;;;;;;10.38;9.77;;;;;;;;;;4967249;28;20114;-73
2023/09/22 12:57:47;;;;;;;10.32;9.63;;;;;;;;;;4970404;28;20118;-74
2023/09/22 13:00:15;;;;;;;10.95;10.25;;;;;;;;;;4971047;28;20030;-73
2023/09/22 13:02:41;;;;;;;10.40;9.80;;;;;;;;;;4970256;28;20093;-73
2023/09/22 13:05:11;;;;;;;10.40;9.70;;;;;;;;;;4968885;28;20035;-74
2023/09/22 13:07:37;;;;;;;10.07;9.13;;;;;;;;;;4970459;28;20070;-74
2023/09/22 13:10:08;;;;;;;10.20;9.60;;;;;;;;;;4969908;28;20035;-73
2023/09/22 13:12:42;;;;;;;10.43;9.63;;;;;;;;;;4969349;28;20034;-73
2023/09/22 13:15:08;;;;;;;10.05;9.45;;;;;;;;;;4969204;28;20847;-73
2023/09/22 13:17:35;;;;;;;10.18;9.48;;;;;;;;;;4971093;28;20061;-73
2023/09/22 13:20:02;;;;;;;10.68;9.77;;;;;;;;;;4969682;28;20046;-72
2023/09/22 13:22:28;;;;;;;10.02;9.38;;;;;;;;;;4976250;28;20039;-71
2023/09/22 13:24:54;;;;;;;10.25;9.65;;;;;;;;;;4978276;28;20117;-74
2023/09/22 13:27:20;;;;;;;9.60;9.00;;;;;;;;;;4969380;28;20121;-73
2023/09/22 13:29:45;;;;;;;10.82;9.85;;;;;;;;;;4970225;28;20476;-72
2023/09/22 13:32:11;;;;;;;10.60;10.00;;;;;;;;;;4967921;28;20034;-72
2023/09/22 13:34:37;;;;;;;10.35;9.75;;;;;;;;;;4967996;28;20667;-73
2023/09/22 13:37:03;;;;;;;10.50;9.90;;;;;;;;;;4975179;28;20042;-72
2023/09/22 13:39:30;;;;;;;10.18;9.57;;;;;;;;;;4974923;28;20412;-73
2023/09/22 13:41:56;;;;;;;9.55;9.05;;;;;;;;;;4971702;28;20049;-72
2023/09/22 13:44:22;;;;;;;9.93;9.32;;;;;;;;;;5002326;28;20054;-73
2023/09/22 13:46:48;;;;;;;9.75;9.15;;;;;;;;;;4992735;28;20038;-73
2023/09/22 13:49:13;;;;;;;9.50;9.00;;;;;;;;;;4973159;28;22254;-73
2023/09/22 13:51:40;;;;;;;10.23;9.63;;;;;;;;;;4980397;28;20042;-72
2023/09/22 13:54:06;;;;;;;9.40;8.90;;;;;;;;;;4973213;28;20034;-72
2023/09/22 13:56:31;;;;;;;9.77;9.18;;;;;;;;;;4977653;28;20039;-73
2023/09/22 13:58:57;;;;;;;9.38;8.73;;;;;;;;;;4972937;28;20032;-71
2023/09/22 14:01:27;;;;;;;10.10;9.07;;;;;;;;;;5000703;28;20591;-73
2023/09/22 14:03:54;;;;;;;10.65;9.63;;;;;;;;;;4987934;28;20113;-71
2023/09/22 14:06:26;;;;;;;9.73;9.10;;;;;;;;;;4966726;28;20039;-74
2023/09/22 14:08:53;;;;;;;9.30;8.80;;;;;;;;;;4970600;28;20062;-73
2023/09/22 14:11:20;;;;;;;9.90;9.20;;;;;;;;;;5000910;28;20061;-73
2023/09/22 14:13:46;;;;;;;10.10;9.48;;;;;;;;;;4971235;28;20081;-72
2023/09/22 14:16:12;;;;;;;10.63;9.93;;;;;;;;;;4973063;28;20551;-72
2023/09/22 14:18:39;;;;;;;10.65;9.80;;;;;;;;;;4970360;28;20035;-73
2023/09/22 14:21:07;;;;;;;10.23;9.48;;;;;;;;;;4967784;28;20522;-75
2023/09/22 14:23:33;;;;;;;9.98;9.38;;;;;;;;;;4981750;28;20039;-74
2023/09/22 14:25:59;;;;;;;10.38;9.68;;;;;;;;;;4969208;28;20113;-74